createdAt,value
2023-04-01T03:31:03.266Z,51.20
2023-04-01T03:41:47.039Z,52.90
2023-04-01T03:52:22.789Z,51.50
2023-04-01T04:02:59.435Z,49.20
2023-04-01T04:13:40.220Z,48.60
2023-04-01T04:24:16.255Z,46.90
2023-04-01T04:35:10.745Z,48.80
2023-04-01T04:45:47.203Z,49.20
2023-04-01T04:56:24.898Z,49.80
2023-04-01T05:07:09.195Z,48.80
2023-04-01T05:17:45.004Z,48.40
2023-04-01T05:28:21.340Z,47.40
2023-04-01T05:38:57.485Z,49.30
2023-04-01T05:49:35.449Z,49.40
2023-04-01T06:00:12.992Z,47.70
2023-04-01T06:11:02.590Z,48.80
2023-04-01T06:22:13.865Z,47.30
2023-04-01T06:33:29.738Z,47.80
2023-04-01T06:44:43.983Z,48.30
2023-04-01T06:56:08.521Z,49.10
2023-04-01T07:07:10.008Z,49.00
2023-04-01T07:18:01.022Z,49.80
2023-04-01T07:28:36.573Z,50.60
2023-04-01T07:40:06.142Z,50.10
2023-04-01T07:51:08.003Z,50.90
2023-04-01T08:02:00.434Z,48.20
2023-04-01T08:13:06.266Z,49.60
2023-04-01T08:24:15.233Z,49.20
2023-04-01T08:35:18.274Z,49.50
2023-04-01T08:46:28.186Z,53.00
2023-04-01T08:57:25.436Z,59.30
2023-04-01T09:08:49.555Z,59.90
2023-04-01T09:19:53.856Z,60.00
2023-04-01T09:30:48.169Z,60.10
2023-04-01T09:41:40.635Z,61.80
2023-04-01T09:52:47.589Z,69.60
2023-04-01T10:04:01.293Z,99.90
2023-04-01T10:15:01.307Z,96.00
2023-04-01T10:25:54.684Z,86.00
2023-04-01T10:36:53.018Z,79.80
2023-04-01T10:47:55.708Z,79.30
2023-04-01T10:58:50.382Z,81.90
2023-04-01T11:10:21.968Z,77.20
2023-04-01T11:21:35.344Z,83.50
2023-04-01T11:32:20.720Z,89.60
2023-04-01T11:43:17.269Z,90.10
2023-04-01T11:54:39.836Z,99.90
2023-04-01T12:05:50.834Z,99.90
2023-04-01T12:16:41.024Z,99.90
2023-04-01T12:27:50.160Z,99.90
2023-04-01T12:38:49.156Z,85.20
2023-04-01T12:49:52.666Z,85.10
2023-04-01T13:00:47.377Z,83.90
2023-04-01T13:11:48.531Z,95.10
2023-04-01T13:22:46.047Z,99.90
2023-04-01T13:33:51.184Z,99.20
2023-04-01T13:44:53.120Z,99.90
2023-04-01T13:55:41.135Z,99.90
2023-04-01T14:06:30.429Z,99.20
2023-04-01T14:17:25.268Z,97.00
2023-04-01T14:28:27.724Z,92.40
2023-04-01T14:39:28.683Z,99.90
2023-04-01T14:50:19.051Z,87.70
2023-04-01T15:01:07.003Z,85.60
2023-04-01T15:11:48.429Z,94.70
2023-04-01T15:22:26.973Z,93.40
2023-04-01T15:33:28.943Z,88.70
2023-04-01T15:44:04.804Z,83.30
2023-04-01T15:55:02.524Z,79.40
2023-04-01T16:05:56.413Z,67.70
2023-04-01T16:16:55.184Z,61.30
2023-04-01T16:27:43.226Z,59.10
2023-04-01T16:38:30.887Z,61.10
2023-04-01T16:49:12.557Z,60.20
2023-04-01T17:00:17.650Z,54.80
2023-04-01T17:11:19.822Z,57.00
2023-04-01T17:22:02.450Z,55.50
2023-04-01T17:33:24.530Z,54.80
2023-04-01T17:44:33.363Z,58.00
2023-04-01T17:55:48.603Z,57.40
2023-04-01T18:06:52.723Z,68.30
2023-04-01T18:18:08.012Z,66.00
2023-04-01T18:28:50.575Z,65.90
2023-04-01T18:39:41.003Z,64.50
2023-04-01T18:50:27.194Z,62.80
2023-04-01T19:01:21.389Z,63.30
2023-04-01T19:12:29.699Z,66.20
2023-04-01T19:23:24.983Z,65.80
2023-04-01T19:34:14.779Z,66.30
2023-04-01T19:45:08.934Z,67.90
2023-04-01T19:56:07.556Z,69.20
2023-04-01T20:06:55.998Z,66.80
2023-04-01T20:17:54.009Z,67.90
2023-04-01T20:29:05.264Z,71.30
2023-04-01T20:39:57.912Z,73.20
2023-04-01T20:51:00.371Z,72.70
2023-04-01T21:02:03.058Z,73.10
2023-04-01T21:12:48.786Z,74.10
2023-04-01T21:23:36.333Z,72.50
